This is the latest recevied weather packets stored in our database for station/object K1WJY. If no packets are shown the sender has not sent any weather packets the latest 10 day(s).
| Time | Temp. | Humidity | Pressure | Rain* | Wind** | Luminosity | Snow |
|---|---|---|---|---|---|---|---|
| 1788041734 | 20.56° C | 65% | 1021.4 hPa | 0 mm | - | 31 W/m² | - |
| 1788041429 | 21.11° C | 65% | 1021.5 hPa | 0 mm | - | 41 W/m² | - |
| 1788041127 | 21.11° C | 64% | 1021.3 hPa | 0 mm | - | 34 W/m² | - |
| 1788040822 | 21.11° C | 64% | 1021.3 hPa | 0 mm | - | 76 W/m² | - |
| 1788040516 | 21.11° C | 64% | 1021.4 hPa | 0 mm | - | 64 W/m² | - |
| 1788040213 | 21.67° C | 64% | 1021.4 hPa | 0 mm | - | 38 W/m² | - |
| 1788039911 | 21.67° C | 65% | 1021.2 hPa | 0 mm | - | 50 W/m² | - |
| 1788039606 | 21.67° C | 65% | 1021.1 hPa | 0 mm | - | 44 W/m² | - |
| 1788039302 | 22.22° C | 64% | 1021.2 hPa | 0 mm | - | 51 W/m² | - |
| 1788039001 | 22.78° C | 62% | 1021.4 hPa | 0 mm | - | 127 W/m² | - |
| 1788038697 | 22.78° C | 61% | 1021.2 hPa | 0 mm | - | 51 W/m² | - |
| 1788038396 | 23.89° C | 52% | 1021.2 hPa | 0 mm | - | 89 W/m² | - |
| 1788038091 | 24.44° C | 46% | 1021.3 hPa | 0 mm | - | 115 W/m² | - |
| 1788037791 | 25° C | 45% | 1021.2 hPa | 0 mm | - | 61 W/m² | - |
| 1788037491 | 25° C | 45% | 1021.3 hPa | 0 mm | - | 171 W/m² | - |
| 1788037186 | 25° C | 45% | 1021.1 hPa | 0 mm | - | 114 W/m² | - |
| 1788036886 | 25° C | 45% | 1021.1 hPa | 0 mm | - | 255 W/m² | - |
| 1788036583 | 25.56° C | 45% | 1021 hPa | 0 mm | - | 280 W/m² | - |
| 1788036278 | 26.11° C | 44% | 1021.2 hPa | 0 mm | - | 281 W/m² | - |
| 1788035973 | 26.11° C | 44% | 1021.2 hPa | 0 mm | - | 311 W/m² | - |
| 1788035672 | 25.56° C | 44% | 1021 hPa | 0 mm | - | 329 W/m² | - |
| 1788035368 | 25.56° C | 44% | 1021.1 hPa | 0 mm | - | 334 W/m² | - |
| 1788035064 | 25.56° C | 45% | 1021.1 hPa | 0 mm | - | 356 W/m² | - |
| 1788034760 | 25.56° C | 45% | 1021.5 hPa | 0 mm | - | 376 W/m² | - |
| 1788034456 | 25.56° C | 44% | 1021.3 hPa | 0 mm | - | 384 W/m² | - |
* Rain latest hour (hover to see other rain measurements)
** Current wind speed in m/s (hover to see current wind gust speed)